createdAt,value
2023-02-20T00:07:03.528Z,10.10
2023-02-20T00:11:19.235Z,10.68
2023-02-20T00:16:47.147Z,11.32
2023-02-20T00:18:38.238Z,11.63
2023-02-20T00:20:18.956Z,11.13
2023-02-20T00:24:43.505Z,10.73
2023-02-20T00:31:41.542Z,10.93
2023-02-20T21:06:16.888Z,19.00
2023-02-20T21:07:51.530Z,18.88
2023-02-20T21:09:23.471Z,18.67
2023-02-20T21:11:01.528Z,18.80
2023-02-20T21:12:33.630Z,18.30
2023-02-20T21:14:05.592Z,19.13
2023-02-20T21:15:37.713Z,20.10
2023-02-20T21:17:11.056Z,20.48
2023-02-20T21:18:43.103Z,17.77
2023-02-20T21:20:20.864Z,19.73
2023-02-20T21:21:53.607Z,19.48
2023-02-20T21:23:27.690Z,20.30
2023-02-20T21:24:59.715Z,20.33
2023-02-20T21:26:32.283Z,20.65
2023-02-20T21:28:04.473Z,19.67
2023-02-20T21:29:36.436Z,20.23
2023-02-20T21:31:08.543Z,19.03
2023-02-20T21:32:40.737Z,20.67
2023-02-20T21:34:13.537Z,19.98
2023-02-20T21:37:18.179Z,19.67
2023-02-20T21:38:50.325Z,20.10
2023-02-20T21:40:22.356Z,17.20
2023-02-20T21:42:14.555Z,20.13
2023-02-20T21:44:05.201Z,20.35
2023-02-20T21:45:43.291Z,19.38
2023-02-20T21:47:34.333Z,20.13
2023-02-20T21:49:09.613Z,20.83
2023-02-20T21:50:45.142Z,20.30
2023-02-20T21:52:40.498Z,20.98
2023-02-20T21:54:26.976Z,20.85
2023-02-20T21:56:05.277Z,20.92
2023-02-20T21:57:47.267Z,19.33
2023-02-20T21:59:29.766Z,20.38
2023-02-20T22:01:11.474Z,20.35
2023-02-20T22:02:52.405Z,19.48
2023-02-20T22:04:36.036Z,21.30
2023-02-20T22:06:08.521Z,21.55
2023-02-20T22:07:59.210Z,22.33
2023-02-20T22:09:53.098Z,21.00
2023-02-20T22:11:43.620Z,20.98
2023-02-20T22:13:34.658Z,21.65
2023-02-20T22:15:25.982Z,20.80
2023-02-20T22:17:16.809Z,21.55
2023-02-20T22:19:07.364Z,20.30
2023-02-20T22:20:58.102Z,20.77
2023-02-20T22:22:48.885Z,19.80
2023-02-20T22:24:39.586Z,19.92
2023-02-20T22:26:36.033Z,21.70
2023-02-20T22:28:29.206Z,19.92
2023-02-20T22:30:24.106Z,21.08
2023-02-20T22:32:14.923Z,20.63
2023-02-20T22:34:06.049Z,21.25
2023-02-20T22:35:56.947Z,21.50
2023-02-20T22:38:03.119Z,21.02
2023-02-20T22:40:04.751Z,20.88
2023-02-20T22:41:55.600Z,22.13
2023-02-20T22:43:52.006Z,22.23
2023-02-20T22:45:43.193Z,21.00
2023-02-20T22:47:33.826Z,20.60
2023-02-20T22:49:27.808Z,21.88
2023-02-20T22:51:18.079Z,21.33
2023-02-20T22:53:09.453Z,20.58
2023-02-20T22:55:05.262Z,21.20
2023-02-20T22:56:56.582Z,21.40
2023-02-20T22:58:47.225Z,21.42
2023-02-20T23:00:40.116Z,21.35
2023-02-20T23:02:30.816Z,22.25
2023-02-20T23:04:22.176Z,21.75
2023-02-20T23:06:18.479Z,22.10
2023-02-20T23:08:10.423Z,22.00
2023-02-20T23:10:01.424Z,23.13
2023-02-20T23:11:53.938Z,22.70
2023-02-20T23:13:51.609Z,20.77
2023-02-20T23:15:47.968Z,23.70
2023-02-20T23:17:44.442Z,23.45
2023-02-20T23:19:36.351Z,22.77
2023-02-20T23:21:29.767Z,21.90
2023-02-20T23:23:25.584Z,22.20
2023-02-20T23:25:18.258Z,23.92
2023-02-20T23:27:12.211Z,23.40
2023-02-20T23:29:04.608Z,23.58
2023-02-20T23:30:55.317Z,23.33
2023-02-20T23:32:48.773Z,23.30
2023-02-20T23:34:39.459Z,23.67
2023-02-20T23:36:30.150Z,23.27
2023-02-20T23:38:20.698Z,23.52
2023-02-20T23:40:11.476Z,23.50
2023-02-20T23:42:05.203Z,23.50
2023-02-20T23:45:46.823Z,22.02
2023-02-20T23:47:37.213Z,23.88
2023-02-20T23:49:27.980Z,24.58
2023-02-20T23:51:18.720Z,24.85
2023-02-20T23:53:09.471Z,25.52
2023-02-20T23:55:00.279Z,25.27
2023-02-20T23:56:51.089Z,25.63
2023-02-20T23:58:43.708Z,24.02
